| time (UTC) | temp F | wind direction | speed MPH | gust MPH | rain 1hr in | rain 24hr in | rain mn in | humidity % | barometer mb |
| 20260508030014 | 44 | 158 | 0.0 | 1.0 | 0.00 | 0.00 | 0.00 | 59 | 1013.2 |
| 20260508024524 | 44 | 160 | 0.0 | 0.0 | 0.00 | 0.00 | 0.00 | 58 | 1013.2 |
| 20260508023033 | 44 | 162 | 0.0 | 1.0 | 0.00 | 0.00 | 0.00 | 58 | 1013.1 |
| 20260508021523 | 45 | 166 | 0.0 | 1.0 | 0.00 | 0.00 | 0.00 | 57 | 1013.1 |
| 20260508020014 | 45 | 151 | 0.0 | 0.0 | 0.00 | 0.00 | 0.00 | 57 | 1013.1 |
| 20260508014519 | 45 | 137 | 0.0 | 1.0 | 0.00 | 0.00 | 0.00 | 56 | 1013.0 |
| 20260508013017 | 45 | 211 | 0.0 | 1.0 | 0.00 | 0.00 | 0.00 | 55 | 1013.0 |
| 20260508011525 | 46 | 211 | 0.0 | 1.0 | 0.00 | 0.00 | 0.00 | 53 | 1012.9 |
| 20260508010031 | 48 | 277 | 0.0 | 1.0 | 0.00 | 0.00 | 0.00 | 51 | 1012.7 |
| 20260508004511 | 49 | 275 | 0.0 | 2.0 | 0.00 | 0.00 | 0.00 | 49 | 1012.7 |
| 20260508003013 | 50 | 281 | 1.0 | 7.0 | 0.00 | 0.00 | 0.00 | 46 | 1012.6 |
| 20260508001519 | 51 | 288 | 3.0 | 7.0 | 0.00 | 0.00 | 0.00 | 44 | 1012.6 |
| 20260508000021 | 52 | 303 | 3.0 | 9.0 | 0.00 | 0.00 | 0.00 | 43 | 1012.4 |
| 20260507234526 | 52 | 305 | 2.0 | 12.0 | 0.00 | 0.00 | 0.00 | 44 | 1012.3 |
| 20260507233012 | 53 | 313 | 7.0 | 12.0 | 0.00 | 0.00 | 0.00 | 43 | 1012.3 |
| 20260507231516 | 53 | 279 | 7.0 | 13.0 | 0.00 | 0.00 | 0.00 | 43 | 1012.3 |
| 20260507230020 | 54 | 292 | 6.0 | 12.0 | 0.00 | 0.00 | 0.00 | 41 | 1012.4 |
| 20260507224522 | 54 | 330 | 7.0 | 14.0 | 0.00 | 0.00 | 0.00 | 43 | 1012.3 |
| 20260507223027 | 54 | 1 | 5.0 | 15.0 | 0.00 | 0.00 | 0.00 | 42 | 1012.4 |
| 20260507221510 | 54 | 311 | 4.0 | 16.0 | 0.00 | 0.00 | 0.00 | 44 | 1012.3 |
| 20260507220016 | 54 | 266 | 6.0 | 15.0 | 0.00 | 0.00 | 0.00 | 48 | 1012.3 |
| 20260507214524 | 53 | 259 | 6.0 | 12.0 | 0.00 | 0.00 | 0.00 | 52 | 1012.2 |
| 20260507213030 | 54 | 281 | 4.0 | 11.0 | 0.00 | 0.00 | 0.00 | 55 | 1012.0 |
| 20260507211526 | 53 | 260 | 6.0 | 18.0 | 0.00 | 0.00 | 0.00 | 55 | 1012.0 |
| 20260507210028 | 51 | 316 | 2.0 | 9.0 | 0.00 | 0.00 | 0.00 | 59 | 1011.8 |
| 20260507204520 | 52 | 308 | 5.0 | 14.0 | 0.00 | 0.00 | 0.00 | 57 | 1011.9 |
| 20260507203005 | 53 | 305 | 5.0 | 10.0 | 0.00 | 0.00 | 0.00 | 55 | 1011.8 |
| 20260507201505 | 52 | 305 | 4.0 | 13.0 | 0.00 | 0.00 | 0.00 | 54 | 1011.7 |
| 20260507200017 | 53 | 293 | 4.0 | 11.0 | 0.00 | 0.00 | 0.00 | 53 | 1011.7 |
| 20260507194503 | 54 | 300 | 3.0 | 11.0 | 0.00 | 0.00 | 0.00 | 51 | 1011.8 |
| 20260507193005 | 53 | 295 | 2.0 | 11.0 | 0.00 | 0.00 | 0.00 | 52 | 1011.9 |
| 20260507191505 | 53 | 298 | 3.0 | 7.0 | 0.00 | 0.00 | 0.00 | 53 | 1011.9 |
| 20260507190020 | 53 | 300 | 4.0 | 9.0 | 0.00 | 0.00 | 0.00 | 49 | 1012.1 |
| 20260507184512 | 53 | 333 | 4.0 | 11.0 | 0.00 | 0.00 | 0.00 | 50 | 1012.1 |
| 20260507183005 | 53 | 302 | 3.0 | 8.0 | 0.00 | 0.00 | 0.00 | 51 | 1012.1 |
| 20260507181505 | 53 | 338 | 5.0 | 10.0 | 0.00 | 0.00 | 0.00 | 51 | 1012.1 |
| 20260507180010 | 54 | 305 | 5.0 | 11.0 | 0.00 | 0.00 | 0.00 | 51 | 1012.1 |
| 20260507174511 | 54 | 307 | 4.0 | 9.0 | 0.00 | 0.00 | 0.00 | 52 | 1012.1 |
| 20260507173015 | 54 | 283 | 3.0 | 13.0 | 0.00 | 0.00 | 0.00 | 58 | 1012.2 |
| 20260507171503 | 54 | 345 | 4.0 | 12.0 | 0.00 | 0.00 | 0.00 | 55 | 1012.1 |
| 20260507170007 | 55 | 320 | 4.0 | 13.0 | 0.00 | 0.00 | 0.00 | 54 | 1012.1 |
| 20260507164517 | 56 | 294 | 6.0 | 12.0 | 0.00 | 0.00 | 0.00 | 48 | 1012.2 |
| 20260507163014 | 55 | 304 | 5.0 | 11.0 | 0.00 | 0.00 | 0.00 | 50 | 1012.2 |
| 20260507161516 | 55 | 287 | 4.0 | 11.0 | 0.00 | 0.00 | 0.00 | 46 | 1012.1 |
| 20260507160005 | 54 | 254 | 4.0 | 7.0 | 0.00 | 0.00 | 0.00 | 49 | 1012.2 |
| 20260507154506 | 55 | 198 | 1.0 | 7.0 | 0.00 | 0.00 | 0.00 | 46 | 1012.3 |
| 20260507153012 | 55 | 277 | 2.0 | 11.0 | 0.00 | 0.00 | 0.00 | 46 | 1012.4 |
| 20260507151516 | 54 | 274 | 1.0 | 3.0 | 0.00 | 0.00 | 0.00 | 49 | 1012.5 |
| 20260507150021 | 54 | 293 | 3.0 | 7.0 | 0.00 | 0.00 | 0.00 | 53 | 1012.5 |
| 20260507144504 | 54 | 313 | 2.0 | 4.0 | 0.00 | 0.00 | 0.00 | 52 | 1012.5 |
| 20260507143008 | 53 | 310 | 4.0 | 8.0 | 0.00 | 0.00 | 0.00 | 52 | 1012.6 |
| 20260507141511 | 53 | 233 | 2.0 | 7.0 | 0.00 | 0.00 | 0.00 | 51 | 1012.7 |
| 20260507140017 | 53 | 271 | 0.0 | 7.0 | 0.00 | 0.00 | 0.00 | 56 | 1012.9 |
| 20260507134522 | 52 | 134 | 0.0 | 3.0 | 0.00 | 0.00 | 0.00 | 60 | 1013.1 |
| 20260507133024 | 51 | 307 | 1.0 | 4.0 | 0.00 | 0.00 | 0.00 | 63 | 1013.2 |
| 20260507131508 | 49 | 300 | 0.0 | 5.0 | 0.00 | 0.00 | 0.00 | 63 | 1013.2 |
| 20260507130014 | 49 | 273 | 2.0 | 5.0 | 0.00 | 0.00 | 0.00 | 67 | 1013.3 |
| 20260507124523 | 49 | 255 | 2.0 | 6.0 | 0.00 | 0.00 | 0.00 | 65 | 1013.2 |
| 20260507123026 | 50 | 257 | 1.0 | 4.0 | 0.00 | 0.00 | 0.00 | 66 | 1013.1 |
| 20260507121536 | 50 | 141 | 0.0 | 3.0 | 0.00 | 0.00 | 0.00 | 66 | 1013.0 |
| 20260507120011 | 48 | 283 | 0.0 | 1.0 | 0.00 | 0.00 | 0.00 | 69 | 1013.0 |
| 20260507114517 | 46 | 223 | 0.0 | 3.0 | 0.00 | 0.00 | 0.00 | 72 | 1013.0 |
| 20260507113031 | 45 | 126 | 0.0 | 1.0 | 0.00 | 0.00 | 0.00 | 75 | 1013.1 |
| 20260507111504 | 42 | 142 | 0.0 | 2.0 | 0.00 | 0.00 | 0.00 | 79 | 1012.9 |
| 20260507110009 | 41 | 159 | 0.0 | 1.0 | 0.00 | 0.00 | 0.00 | 78 | 1012.9 |
| 20260507104514 | 41 | 221 | 0.0 | 1.0 | 0.00 | 0.00 | 0.00 | 77 | 1012.7 |
| 20260507103017 | 41 | 207 | 0.0 | 1.0 | 0.00 | 0.00 | 0.00 | 77 | 1012.4 |
| 20260507101528 | 41 | 198 | 0.0 | 0.0 | 0.00 | 0.00 | 0.00 | 78 | 1012.4 |
| 20260507100012 | 41 | 173 | 0.0 | 1.0 | 0.00 | 0.00 | 0.00 | 78 | 1012.4 |
| 20260507094511 | 42 | 113 | 0.0 | 2.0 | 0.00 | 0.01 | 0.00 | 77 | 1012.4 |
| 20260507093033 | 42 | 198 | 0.0 | 3.0 | 0.00 | 0.03 | 0.00 | 78 | 1012.3 |
| 20260507091521 | 42 | 152 | 0.0 | 2.0 | 0.00 | 0.06 | 0.00 | 78 | 1012.4 |
| 20260507090031 | 41 | 174 | 0.0 | 4.0 | 0.00 | 0.07 | 0.00 | 79 | 1012.5 |
| 20260507084525 | 41 | 120 | 0.0 | 1.0 | 0.00 | 0.08 | 0.00 | 81 | 1012.5 |
| 20260507083031 | 40 | 146 | 0.0 | 1.0 | 0.00 | 0.09 | 0.00 | 81 | 1012.7 |
| 20260507081517 | 40 | 143 | 0.0 | 2.0 | 0.00 | 0.12 | 0.00 | 80 | 1012.7 |
| 20260507080020 | 41 | 96 | 0.0 | 2.0 | 0.00 | 0.14 | 0.00 | 80 | 1012.7 |
| 20260507074529 | 41 | 111 | 0.0 | 2.0 | 0.00 | 0.16 | 0.00 | 79 | 1012.7 |
| 20260507073026 | 41 | 108 | 0.0 | 3.0 | 0.00 | 0.17 | 0.00 | 79 | 1012.7 |
| 20260507071513 | 41 | 127 | 0.0 | 4.0 | 0.00 | 0.20 | 0.00 | 79 | 1012.7 |
| 20260507070017 | 41 | 119 | 1.0 | 4.0 | 0.00 | 0.21 | 0.00 | 80 | 1012.9 |
| 20260507064523 | 42 | 97 | 0.0 | 3.0 | 0.00 | 0.22 | 0.00 | 79 | 1013.1 |
| 20260507063029 | 42 | 91 | 1.0 | 3.0 | 0.00 | 0.23 | 0.00 | 79 | 1013.1 |
| 20260507061529 | 42 | 108 | 1.0 | 3.0 | 0.00 | 0.26 | 0.00 | 79 | 1013.3 |
| 20260507060014 | 42 | 84 | 1.0 | 3.0 | 0.00 | 0.29 | 0.00 | 78 | 1013.4 |
| 20260507054521 | 42 | 108 | 0.0 | 3.0 | 0.00 | 0.33 | 0.00 | 79 | 1013.6 |
| 20260507053023 | 42 | 105 | 0.0 | 0.0 | 0.00 | 0.34 | 0.00 | 79 | 1013.5 |
| 20260507051510 | 42 | 104 | 0.0 | 0.0 | 0.00 | 0.35 | 0.00 | 78 | 1013.8 |
| 20260507050013 | 43 | 118 | 0.0 | 2.0 | 0.00 | 0.37 | 0.00 | 76 | 1013.9 |
| 20260507044516 | 44 | 115 | 0.0 | 1.0 | 0.00 | 0.38 | 0.00 | 76 | 1013.9 |
| 20260507043033 | 44 | 101 | 0.0 | 2.0 | 0.00 | 0.39 | 0.00 | 76 | 1013.9 |
| 20260507041506 | 44 | 109 | 0.0 | 2.0 | 0.00 | 0.41 | 0.00 | 77 | 1014.1 |
| 20260507040008 | 43 | 112 | 0.0 | 1.0 | 0.00 | 0.44 | 0.00 | 77 | 1014.2 |
| 20260507034515 | 43 | 115 | 0.0 | 0.0 | 0.00 | 0.46 | 0.44 | 77 | 1014.3 |
| 20260507033020 | 43 | 115 | 0.0 | 1.0 | 0.00 | 0.48 | 0.44 | 77 | 1014.5 |
| 20260507031523 | 43 | 115 | 0.0 | 0.0 | 0.00 | 0.49 | 0.44 | 76 | 1014.5 |